ADDS METAR Data INFO
IDs: Format: Raw Decoded Include TAF

Data at: 0855 UTC 19 Jun 2018

KTEX 190835Z AUTO 14004KT 10SM CLR 12/M01 A3030 RMK AO2 T01201007
KTEX 190815Z AUTO 12007KT 10SM CLR 12/00 A3031 RMK AO2 T01201005
KTEX 190755Z AUTO 12005KT 10SM CLR 13/M01 A3031 RMK AO2 T01321009
KTEX 190735Z AUTO 00000KT 10SM CLR 13/M01 A3031 RMK AO2 T01331006
KTEX 190715Z AUTO 08004KT 10SM CLR 14/M01 A3031 RMK AO2 T01431010
KTEX 190655Z AUTO 11008KT 10SM CLR 15/M01 A3031 RMK AO2 T01491009 402040115
KTEX 190635Z AUTO 11007KT 10SM CLR 14/00 A3031 RMK AO2 T01441004
KTEX 190615Z AUTO 13005KT 10SM CLR 15/M01 A3032 RMK AO2 T01521006
KTEX 190555Z AUTO 11006KT 10SM CLR 15/M01 A3032 RMK AO2 T01501006 10204 20145
KTEX 190535Z AUTO 10006KT 10SM CLR 15/00 A3033 RMK AO2 T01471004
KTEX 190515Z AUTO 11005KT 10SM CLR 15/00 A3033 RMK AO2 T01481005
KTEX 190455Z AUTO 12006KT 10SM CLR 15/00 A3033 RMK AO2 T01521005
KTEX 190435Z AUTO 11004KT 10SM CLR 16/00 A3034 RMK AO2 T01561005
KTEX 190415Z AUTO 00000KT 10SM CLR 16/M01 A3034 RMK AO2 T01631007
KTEX 190355Z AUTO 13005KT 10SM CLR 17/M01 A3034 RMK AO2 T01671006
KTEX 190335Z AUTO 14006KT 10SM CLR 17/M01 A3034 RMK AO2 T01701006
KTEX 190315Z AUTO 16007KT 10SM CLR 17/M01 A3034 RMK AO2 T01721007
KTEX 190255Z AUTO 17012G16KT 10SM CLR 18/M01 A3033 RMK AO2 T01771010
KTEX 190235Z AUTO 16007KT 10SM SCT090 18/M01 A3033 RMK AO2 T01801012
KTEX 190215Z AUTO 17009KT 10SM SCT090 18/M01 A3033 RMK AO2 T01831008
KTEX 190155Z AUTO 17010G19KT 10SM CLR 19/M01 A3032 RMK AO2 T01871010
KTEX 190135Z AUTO 16013G19KT 10SM SCT100 19/M01 A3031 RMK AO2 T01871008
KTEX 190115Z AUTO 16008G18KT 10SM SCT100 19/00 A3031 RMK AO2 T01901005
KTEX 190055Z AUTO 15005G17KT 10SM SCT100 20/M01 A3031 RMK AO2 T01951009
KTEX 190035Z AUTO 19003G14KT 10SM CLR 20/M02 A3030 RMK AO2 T02001017
KTEX 190015Z AUTO 14009G16KT 10SM SCT085 20/00 A3030 RMK AO2 T02011004
KTEX 182355Z AUTO 15009G18KT 110V190 10SM SCT085 20/M01 A3030 RMK AO2 T02001006 10202 20176
KTEX 182335Z AUTO 16010G19KT 10SM SCT085 SCT100 19/00 A3030 RMK AO2 T01911005
KTEX 182315Z AUTO 17008G18KT 10SM SCT095 19/00 A3030 RMK AO2 T01941004
KTEX 182255Z AUTO 14007KT 10SM BKN095 20/00 A3030 RMK AO2 T01991005
KTEX 182235Z AUTO 17016G21KT 10SM SCT095 19/M01 A3030 RMK AO2 LTG DSNT NW T01931011
KTEX 182215Z AUTO 18013G18KT 10SM SCT095 19/M01 A3030 RMK AO2 T01911008
KTEX 182155Z AUTO 17013G24KT 10SM SCT090 20/M01 A3030 RMK AO2 LTG DSNT NW T01971009
KTEX 182135Z AUTO 13013G19KT 10SM SCT080 SCT090 20/00 A3030 RMK AO2 T02000001
KTEX 182115Z AUTO 16009G17KT 10SM SCT075 SCT090 20/00 A3031 RMK AO2 T01990002
KTEX 182055Z AUTO 15014G20KT 10SM SCT090 19/00 A3031 RMK AO2 T01930003
KTEX 182035Z AUTO 12013G18KT 10SM SCT075 SCT090 20/00 A3031 RMK AO2 T01960003
KTEX 182015Z AUTO 15014G23KT 10SM SCT075 SCT095 20/00 A3030 RMK AO2 T01951001
KTEX 181955Z AUTO 17010G17KT 140V210 10SM SCT075 20/00 A3031 RMK AO2 T01960001
KTEX 181935Z AUTO 16007G16KT 130V200 10SM SCT075 19/00 A3031 RMK AO2 T01911003
KTEX 181915Z AUTO 13006G14KT 10SM CLR 19/00 A3031 RMK AO2 T01890000
KTEX 181855Z AUTO 23005G20KT 10SM CLR 19/00 A3032 RMK AO2 T01921005
KTEX 181835Z AUTO 00000KT 10SM CLR 18/M01 A3032 RMK AO2 T01831007
KTEX 181815Z AUTO 20007G17KT 10SM SCT070 18/00 A3032 RMK AO2 LTG DSNT NW T01800000
KTEX 181755Z AUTO 18007KT 10SM CLR 18/00 A3033 RMK AO2 LTG DSNT NW T01771002 10177 20115
KTEX 181735Z AUTO 15007G14KT 10SM CLR 17/00 A3033 RMK AO2 T01721003
KTEX 181715Z AUTO 16009G16KT 130V220 10SM CLR 16/M01 A3033 RMK AO2 T01641012
KTEX 181700Z AUTO 16015G21KT 10SM CLR 17/M02 A3032 RMK AO2 T01651019
KTEX 181635Z AUTO 14013G24KT 10SM CLR 16/M01 A3032 RMK AO2 T01571007
KTEX 181615Z AUTO 14020G26KT 10SM CLR 16/M01 A3032 RMK AO2 T01561009
KTEX 181555Z AUTO 13014G20KT 10SM CLR 16/M01 A3032 RMK AO2 T01551010
KTEX 181535Z AUTO 14011G17KT 10SM CLR 15/M01 A3032 RMK AO2 T01501012
KTEX 181515Z AUTO 13013G18KT 100V160 10SM CLR 15/M01 A3032 RMK AO2 T01451010
KTEX 181455Z AUTO 13012G18KT 10SM CLR 14/00 A3032 RMK AO2 T01421005
KTEX 181435Z AUTO 13010G15KT 10SM CLR 14/00 A3032 RMK AO2 T01390000
KTEX 181415Z AUTO 11007G17KT 060V130 10SM CLR 13/00 A3032 RMK AO2 T01321003
KTEX 181355Z AUTO 14010G16KT 10SM CLR 13/00 A3032 RMK AO2 T01301002
KTEX 181335Z AUTO 14013G21KT 10SM CLR 13/01 A3032 RMK AO2 T01260005
KTEX 181315Z AUTO 13008KT 10SM CLR 12/01 A3031 RMK AO2 T01230011
KTEX 181255Z AUTO 15009G14KT 110V180 10SM CLR 12/02 A3031 RMK AO2 T01180016
KTEX 181235Z AUTO 15008KT 10SM CLR 12/02 A3031 RMK AO2 T01150022
KTEX 181215Z AUTO 13006G15KT 10SM CLR 12/03 A3030 RMK AO2 T01170025
KTEX 181155Z AUTO 17010G19KT 10SM CLR 12/03 A3029 RMK AO2 70014 T01210026 10145 20121
KTEX 181135Z AUTO 16014G21KT 10SM CLR 12/03 A3028 RMK AO2 T01220034
KTEX 181115Z AUTO 15005KT 10SM SCT060 13/04 A3027 RMK AO2 T01250038
KTEX 181055Z AUTO 15003KT 10SM BKN060 13/04 A3027 RMK AO2 LTG DSNT NW T01290039
KTEX 181035Z AUTO 17006KT 10SM BKN060 13/04 A3027 RMK AO2 T01320039
KTEX 181015Z AUTO 17007G14KT 10SM SCT060 SCT070 13/04 A3026 RMK AO2 T01330040
KTEX 180955Z AUTO 16007KT 10SM SCT065 SCT075 13/05 A3026 RMK AO2 T01310050
KTEX 180935Z AUTO 15007KT 10SM CLR 13/05 A3027 RMK AO2 T01330045
KTEX 180915Z AUTO 14010G17KT 10SM CLR 14/05 A3027 RMK AO2 T01350047
KTEX 180855Z AUTO 17016G21KT 10SM CLR 14/05 A3026 RMK AO2 T01380047
KTEX 180835Z AUTO 14011G18KT 10SM CLR 14/05 A3026 RMK AO2 T01360054
KTEX 180815Z AUTO 14011G15KT 10SM CLR 14/05 A3026 RMK AO2 T01400051
KTEX 180755Z AUTO 15012G16KT 10SM SCT075 14/05 A3026 RMK AO2 T01410050
KTEX 180735Z AUTO 15008KT 10SM SCT060 SCT070 14/05 A3026 RMK AO2 T01410048
KTEX 180715Z AUTO 14006KT 10SM SCT050 SCT070 14/05 A3026 RMK AO2 T01420047
KTEX 180655Z AUTO 16010G15KT 10SM CLR 14/04 A3026 RMK AO2 T01410044 401720090
KTEX 180635Z AUTO 14006KT 10SM SCT060 SCT080 14/04 A3026 RMK AO2 T01420043
KTEX 180615Z AUTO 14010KT 110V170 10SM SCT060 BKN070 14/05 A3027 RMK AO2 T01400053
KTEX 180555Z AUTO 12007KT 10SM OVC070 14/06 A3027 RMK AO2 T01390057 10172 20130
KTEX 180535Z AUTO 12008KT 10SM SCT060 BKN070 BKN085 13/07 A3027 RMK AO2 T01300066
KTEX 180515Z AUTO 13010KT 10SM SCT060 SCT070 13/07 A3027 RMK AO2 LTG DSNT N T01340066
KTEX 180455Z AUTO 10007KT 10SM SCT060 SCT070 13/07 A3027 RMK AO2 T01310067
KTEX 180435Z AUTO 12007KT 10SM CLR 14/06 A3027 RMK AO2 T01360063
KTEX 180415Z AUTO 14007KT 10SM SCT055 SCT075 14/06 A3026 RMK AO2 LTG DSNT N T01370063
KTEX 180355Z AUTO 14008G18KT 10SM SCT055 SCT065 14/07 A3026 RMK AO2 T01430068
KTEX 180335Z AUTO 15010G16KT 10SM SCT055 14/07 A3024 RMK AO2 T01420067
KTEX 180315Z AUTO 14007G18KT 10SM BKN055 BKN070 BKN085 15/07 A3023 RMK AO2 T01470067
KTEX 180255Z AUTO 16015G21KT 10SM CLR 15/07 A3023 RMK AO2 T01480068
KTEX 180235Z AUTO 16006G15KT 10SM CLR 15/07 A3022 RMK AO2 LTG DSNT N T01490070
KTEX 180215Z AUTO 18005G16KT 10SM CLR 15/07 A3021 RMK AO2 LTG DSNT SE T01530073
KTEX 180155Z AUTO 16009G16KT 10SM CLR 16/07 A3020 RMK AO2 T01570071
KTEX 180135Z AUTO 16010G16KT 10SM CLR 16/07 A3020 RMK AO2 T01600071
KTEX 180115Z AUTO 00000KT 10SM CLR 16/07 A3019 RMK AO2 T01620074
KTEX 180055Z AUTO 17009G16KT 10SM SCT085 16/07 A3019 RMK AO2 LTG DSNT N T01600073
KTEX 180035Z AUTO 18008KT 10SM BKN085 17/08 A3019 RMK AO2 T01650075
KTEX 180015Z AUTO 15011G16KT 10SM SCT075 BKN090 17/07 A3019 RMK AO2 T01670073
KTEX 172355Z AUTO 14010G17KT 110V170 10SM SCT075 BKN085 17/07 A3019 RMK AO2 LTG DSNT N 60001 T01720074 10172 20141
KTEX 172335Z AUTO 15008KT 10SM BKN075 OVC085 17/08 A3019 RMK AO2 LTG DSNT N T01650076
KTEX 172315Z AUTO 15012KT 10SM BKN070 OVC085 16/07 A3019 RMK AO2 LTG DSNT N T01640073
KTEX 172255Z AUTO 14008KT 120V180 10SM SCT060 BKN070 17/07 A3019 RMK AO2 LTG DSNT N T01660073
KTEX 172235Z AUTO 14010G16KT 10SM TS SCT046 BKN070 BKN075 17/07 A3019 RMK AO2 LTG DSNT N AND NE T01700070
KTEX 172215Z AUTO 15011G20KT 10SM SCT060 OVC070 16/07 A3019 RMK AO2 LTG DSNT N AND NE T01600073
KTEX 172155Z AUTO 15010G18KT 10SM VCTS SCT035 SCT055 BKN080 16/08 A3020 RMK AO2 LTG DSNT N AND NE P0001 T01610084
KTEX 172135Z AUTO 16010G16KT 10SM -RA SCT023 BKN038 OVC085 16/09 A3021 RMK AO2 LTG DSNT NE AND SE T01560086
KTEX 172115Z AUTO 11005KT 10SM BKN035 BKN042 OVC049 16/09 A3021 RMK AO2 LTG DSNT N AND NW T01580091